createdAt,value
2018-09-22T00:00:39.991Z,17.73
2018-09-22T00:03:22.744Z,17.07
2018-09-22T00:06:05.322Z,16.63
2018-09-22T00:08:48.258Z,17.50
2018-09-22T00:11:30.965Z,19.10
2018-09-22T00:14:13.634Z,18.50
2018-09-22T00:16:56.255Z,20.30
2018-09-22T00:19:39.434Z,18.80
2018-09-22T00:22:21.693Z,21.00
2018-09-22T00:25:04.454Z,20.93
2018-09-22T00:27:46.995Z,19.37
2018-09-22T00:30:29.692Z,20.67
2018-09-22T00:33:12.491Z,19.80
2018-09-22T00:35:54.905Z,21.60
2018-09-22T00:38:37.811Z,20.60
2018-09-22T00:41:21.150Z,21.63
2018-09-22T00:44:03.903Z,20.93
2018-09-22T00:46:46.361Z,21.10
2018-09-22T00:49:29.071Z,20.70
2018-09-22T00:52:11.863Z,19.40
2018-09-22T00:54:54.598Z,19.10
2018-09-22T00:57:37.279Z,19.37
2018-09-22T01:00:20.148Z,20.20
2018-09-22T01:03:02.519Z,19.50
2018-09-22T01:05:45.274Z,17.53
2018-09-22T01:08:27.962Z,18.20
2018-09-22T01:11:10.415Z,17.70
2018-09-22T01:13:53.151Z,19.43
2018-09-22T01:16:35.826Z,19.43
2018-09-22T01:19:19.135Z,18.27
2018-09-22T01:22:02.282Z,18.73
2018-09-22T01:24:44.852Z,19.23
2018-09-22T01:27:27.611Z,16.87
2018-09-22T01:30:10.422Z,16.37
2018-09-22T01:32:53.013Z,17.27
2018-09-22T01:35:35.566Z,17.97
2018-09-22T01:38:18.519Z,17.00
2018-09-22T01:41:01.099Z,17.53
2018-09-22T01:43:44.278Z,17.47
2018-09-22T01:46:26.878Z,17.30
2018-09-22T01:49:10.516Z,17.87
2018-09-22T01:51:52.983Z,16.50
2018-09-22T01:54:35.793Z,17.30
2018-09-22T01:57:18.384Z,18.47
2018-09-22T02:00:00.867Z,18.57
2018-09-22T02:02:43.687Z,18.73
2018-09-22T02:05:26.415Z,19.17
2018-09-22T02:08:09.633Z,18.43
2018-09-22T02:10:52.546Z,19.43
2018-09-22T02:13:35.528Z,17.93
2018-09-22T02:16:18.007Z,18.57
2018-09-22T02:19:01.059Z,19.10
2018-09-22T02:21:44.287Z,18.10
2018-09-22T02:24:27.013Z,18.90
2018-09-22T02:27:09.739Z,18.60
2018-09-22T02:29:52.694Z,17.17
2018-09-22T02:32:35.512Z,17.60
2018-09-22T02:35:18.051Z,17.63
2018-09-22T02:38:00.574Z,18.07
2018-09-22T02:40:43.343Z,18.33
2018-09-22T02:43:25.851Z,17.60
2018-09-22T02:46:09.549Z,17.53
2018-09-22T02:48:52.336Z,17.90
2018-09-22T02:51:34.875Z,17.77
2018-09-22T02:54:18.202Z,18.17
2018-09-22T02:57:01.334Z,15.90
2018-09-22T02:59:44.373Z,16.83
2018-09-22T03:02:27.901Z,16.80
2018-09-22T03:05:10.269Z,18.20
2018-09-22T03:07:52.900Z,17.77
2018-09-22T03:10:35.453Z,17.53
2018-09-22T03:13:18.243Z,16.33
2018-09-22T03:16:00.630Z,18.40
2018-09-22T03:18:43.430Z,18.00
2018-09-22T03:21:26.045Z,18.63
2018-09-22T03:24:08.623Z,18.17
2018-09-22T03:26:51.303Z,18.23
2018-09-22T03:29:34.059Z,17.90
2018-09-22T03:32:16.883Z,17.47
2018-09-22T03:34:59.329Z,17.90
2018-09-22T03:37:42.256Z,17.97
2018-09-22T03:40:25.078Z,17.53
2018-09-22T03:43:07.615Z,18.60
2018-09-22T03:45:50.760Z,18.00
2018-09-22T03:48:33.307Z,18.00
2018-09-22T03:51:16.365Z,17.53
2018-09-22T03:53:58.846Z,18.03
2018-09-22T03:56:41.318Z,17.40
2018-09-22T03:59:24.199Z,17.87
2018-09-22T04:02:06.740Z,17.70
2018-09-22T04:04:49.472Z,17.37
2018-09-22T04:07:32.051Z,16.63
2018-09-22T04:10:15.207Z,18.57
2018-09-22T04:12:58.526Z,17.70
2018-09-22T04:15:41.101Z,18.73
2018-09-22T04:18:23.874Z,16.40
2018-09-22T04:21:05.878Z,17.27
2018-09-22T04:23:49.306Z,16.73
2018-09-22T04:26:32.002Z,18.00
2018-09-22T04:29:14.407Z,18.50
2018-09-22T04:31:57.055Z,17.30
2018-09-22T04:34:39.841Z,16.57
2018-09-22T04:37:22.601Z,16.83
2018-09-22T04:40:05.774Z,16.73
2018-09-22T04:42:48.318Z,17.80
2018-09-22T04:45:30.899Z,17.00
2018-09-22T04:49:07.993Z,16.30
2018-09-22T04:52:21.443Z,16.80
2018-09-22T04:55:18.261Z,15.97
2018-09-22T04:58:00.724Z,15.13
2018-09-22T05:00:44.674Z,16.70
2018-09-22T05:03:27.146Z,16.90
2018-09-22T05:06:09.962Z,17.23
2018-09-22T05:08:52.677Z,17.47
2018-09-22T05:11:35.206Z,15.30
2018-09-22T05:14:17.767Z,15.73
2018-09-22T05:17:00.444Z,15.00
2018-09-22T05:19:43.094Z,14.60
2018-09-22T05:22:25.761Z,14.40
2018-09-22T05:25:09.196Z,15.00
2018-09-22T05:27:51.959Z,15.10
2018-09-22T05:30:34.651Z,13.30
2018-09-22T05:33:17.434Z,14.50
2018-09-22T05:36:00.782Z,15.47
2018-09-22T05:38:43.378Z,15.77
2018-09-22T05:41:25.685Z,14.20
2018-09-22T05:44:09.095Z,14.93
2018-09-22T05:46:52.019Z,15.87
2018-09-22T05:49:34.539Z,15.53
2018-09-22T05:52:17.114Z,15.00
2018-09-22T05:54:59.848Z,16.50
2018-09-22T05:57:42.372Z,16.60
2018-09-22T06:00:24.907Z,16.40
2018-09-22T06:03:08.725Z,17.00
2018-09-22T06:05:51.342Z,17.03
2018-09-22T06:08:34.023Z,17.67
2018-09-22T06:11:17.127Z,15.30
2018-09-22T06:13:59.523Z,15.87
2018-09-22T06:16:42.124Z,19.10
2018-09-22T06:19:24.683Z,18.53
2018-09-22T06:22:07.274Z,20.30
2018-09-22T06:24:49.959Z,19.80
2018-09-22T06:27:32.671Z,17.67
2018-09-22T06:30:15.778Z,18.00
2018-09-22T06:33:01.250Z,19.00
2018-09-22T06:35:43.936Z,18.20
2018-09-22T06:38:26.698Z,17.30
2018-09-22T06:41:09.842Z,18.83
2018-09-22T06:43:52.354Z,18.60
2018-09-22T06:46:35.117Z,17.40
2018-09-22T06:49:17.934Z,14.20
2018-09-22T06:52:00.791Z,16.30
2018-09-22T06:54:43.622Z,14.73
2018-09-22T06:57:26.185Z,13.93
2018-09-22T07:00:08.977Z,15.10
2018-09-22T07:02:51.689Z,15.20
2018-09-22T07:05:34.258Z,14.50
2018-09-22T07:08:17.015Z,13.07
2018-09-22T07:11:00.504Z,13.50
2018-09-22T07:13:44.162Z,15.53
2018-09-22T07:16:27.031Z,12.70
2018-09-22T07:19:09.602Z,12.03
2018-09-22T07:21:57.391Z,11.60
2018-09-22T07:24:40.206Z,11.90
2018-09-22T07:27:23.495Z,11.37
2018-09-22T07:30:06.391Z,13.33
2018-09-22T07:32:49.091Z,13.67
2018-09-22T07:35:31.863Z,12.97
2018-09-22T07:38:15.329Z,13.80
2018-09-22T07:40:57.987Z,13.43
2018-09-22T07:43:40.473Z,13.50
2018-09-22T07:46:23.532Z,13.57
2018-09-22T07:49:05.883Z,12.40
2018-09-22T07:51:48.514Z,13.67
2018-09-22T07:54:31.502Z,12.37
2018-09-22T07:57:13.857Z,12.20
2018-09-22T07:59:56.579Z,10.63
2018-09-22T08:02:39.562Z,12.50
2018-09-22T08:05:22.007Z,11.70
2018-09-22T08:08:04.672Z,10.33
2018-09-22T08:10:47.848Z,10.90
2018-09-22T08:13:31.205Z,9.90
2018-09-22T08:16:13.757Z,11.50
2018-09-22T08:18:56.365Z,13.00
2018-09-22T08:21:38.778Z,13.77
2018-09-22T08:24:21.646Z,13.07
2018-09-22T08:27:04.390Z,13.10
2018-09-22T08:29:47.189Z,11.73
2018-09-22T08:32:29.819Z,11.33
2018-09-22T08:35:12.330Z,9.73
2018-09-22T08:37:55.141Z,9.50
2018-09-22T08:40:37.901Z,9.80
2018-09-22T08:43:20.390Z,7.85
2018-09-22T08:46:03.016Z,7.50
2018-09-22T08:48:46.034Z,7.30
2018-09-22T08:51:28.504Z,7.62
2018-09-22T08:54:11.195Z,7.08
2018-09-22T08:56:53.801Z,7.25
2018-09-22T08:59:36.395Z,6.90
2018-09-22T09:02:19.081Z,6.80
2018-09-22T09:05:01.694Z,5.62
2018-09-22T09:07:44.330Z,5.97
2018-09-22T09:10:27.311Z,5.75
2018-09-22T09:13:09.795Z,6.03
2018-09-22T09:15:54.642Z,5.70
2018-09-22T09:18:37.326Z,6.20
2018-09-22T09:21:20.030Z,6.33
2018-09-22T09:24:02.870Z,5.72
2018-09-22T09:26:45.782Z,6.25
2018-09-22T09:29:28.778Z,5.00
2018-09-22T09:32:11.209Z,6.30
2018-09-22T09:34:53.864Z,5.40
2018-09-22T09:37:36.675Z,5.67
2018-09-22T09:40:19.434Z,6.22
2018-09-22T09:43:01.986Z,5.47
2018-09-22T09:45:44.675Z,5.60
2018-09-22T09:48:27.485Z,5.62
2018-09-22T09:51:10.333Z,5.30
2018-09-22T09:53:53.125Z,5.40
2018-09-22T09:56:35.892Z,5.40
2018-09-22T09:59:18.482Z,5.20
2018-09-22T10:02:01.379Z,4.90
2018-09-22T10:04:44.185Z,4.83
2018-09-22T10:07:26.558Z,4.47
2018-09-22T10:10:09.254Z,4.92
2018-09-22T10:12:51.930Z,4.08
2018-09-22T10:15:34.831Z,4.20
2018-09-22T10:18:17.617Z,4.10
2018-09-22T10:21:00.413Z,3.80
2018-09-22T10:23:43.226Z,3.92
2018-09-22T10:26:26.104Z,4.35
2018-09-22T10:29:08.750Z,3.95
2018-09-22T10:31:51.435Z,4.03
2018-09-22T10:34:34.021Z,4.05
2018-09-22T10:37:16.811Z,4.70
2018-09-22T10:39:59.692Z,3.35
2018-09-22T10:42:42.366Z,4.35
2018-09-22T10:45:25.091Z,3.35
2018-09-22T10:48:07.939Z,4.10
2018-09-22T10:50:50.799Z,3.98
2018-09-22T10:53:33.560Z,3.47
2018-09-22T10:56:16.765Z,3.83
2018-09-22T10:58:59.859Z,4.00
2018-09-22T11:01:42.556Z,4.03
2018-09-22T11:04:25.612Z,3.67
2018-09-22T11:07:08.287Z,4.03
2018-09-22T11:09:50.874Z,4.35
2018-09-22T11:12:33.655Z,4.78
2018-09-22T11:15:16.514Z,4.00
2018-09-22T11:17:59.402Z,3.90
2018-09-22T11:20:42.174Z,4.22
2018-09-22T11:23:24.870Z,4.20
2018-09-22T11:26:07.746Z,4.25
2018-09-22T11:28:50.650Z,5.40
2018-09-22T11:31:33.242Z,6.65
2018-09-22T11:34:16.506Z,4.78
2018-09-22T11:37:00.179Z,4.50
2018-09-22T11:39:43.417Z,4.35
2018-09-22T11:42:26.167Z,4.35
2018-09-22T11:45:08.935Z,4.12
2018-09-22T11:47:51.798Z,4.00
2018-09-22T11:50:34.734Z,3.85
2018-09-22T11:53:17.370Z,4.42
2018-09-22T11:56:00.451Z,3.72
2018-09-22T11:58:42.947Z,4.22
2018-09-22T12:01:25.813Z,4.08
2018-09-22T12:04:08.633Z,3.37
2018-09-22T12:06:51.251Z,3.42
2018-09-22T12:09:34.061Z,3.52
2018-09-22T12:12:16.743Z,4.20
2018-09-22T12:14:59.512Z,5.08
2018-09-22T12:17:42.175Z,5.62
2018-09-22T12:20:24.926Z,5.33
2018-09-22T12:23:07.598Z,5.53
2018-09-22T12:25:50.225Z,5.95
2018-09-22T12:28:33.176Z,5.80
2018-09-22T12:31:15.541Z,5.58
2018-09-22T12:33:58.180Z,5.30
2018-09-22T12:36:40.915Z,5.67
2018-09-22T12:39:23.594Z,5.30
2018-09-22T12:42:06.334Z,5.05
2018-09-22T12:44:49.133Z,6.22
2018-09-22T12:47:31.955Z,6.58
2018-09-22T12:50:14.720Z,7.50
2018-09-22T12:52:57.459Z,7.17
2018-09-22T12:55:40.159Z,5.42
2018-09-22T12:58:23.451Z,3.80
2018-09-22T13:01:05.813Z,3.40
2018-09-22T13:03:48.462Z,3.35
2018-09-22T13:06:31.638Z,2.90
2018-09-22T13:09:15.399Z,3.83
2018-09-22T13:11:57.874Z,2.70
2018-09-22T13:14:40.538Z,4.08
2018-09-22T13:17:23.353Z,2.75
2018-09-22T13:20:06.342Z,3.42
2018-09-22T13:22:48.838Z,3.52
2018-09-22T13:25:31.656Z,2.50
2018-09-22T13:28:14.526Z,2.10
2018-09-22T13:30:57.590Z,1.85
2018-09-22T13:33:39.964Z,2.35
2018-09-22T13:36:22.627Z,3.92
2018-09-22T13:39:11.108Z,2.98
2018-09-22T13:41:54.287Z,3.25
2018-09-22T13:44:36.920Z,2.80
2018-09-22T13:47:19.454Z,2.45
2018-09-22T13:50:01.995Z,1.85
2018-09-22T13:52:44.702Z,2.40
2018-09-22T13:55:27.892Z,2.30
2018-09-22T13:58:11.085Z,2.63
2018-09-22T14:00:53.802Z,3.10
2018-09-22T14:03:36.540Z,3.00
2018-09-22T14:06:19.034Z,2.70
2018-09-22T14:09:01.640Z,3.17
2018-09-22T14:11:44.383Z,2.55
2018-09-22T14:14:27.034Z,2.10
2018-09-22T14:17:11.190Z,2.67
2018-09-22T14:19:53.600Z,3.08
2018-09-22T14:22:36.311Z,3.50
2018-09-22T14:25:19.251Z,2.67
2018-09-22T14:28:01.576Z,3.50
2018-09-22T14:30:44.897Z,2.40
2018-09-22T14:33:28.098Z,3.08
2018-09-22T14:36:10.533Z,2.85
2018-09-22T14:38:53.639Z,3.10
2018-09-22T14:41:35.957Z,3.75
2018-09-22T14:44:19.067Z,3.10
2018-09-22T14:47:04.762Z,2.72
2018-09-22T14:49:52.090Z,2.87
2018-09-22T14:52:39.531Z,3.10
2018-09-22T14:55:22.978Z,4.00
2018-09-22T14:58:05.347Z,3.98
2018-09-22T15:00:48.040Z,4.05
2018-09-22T15:03:30.616Z,3.50
2018-09-22T15:06:13.514Z,3.37
2018-09-22T15:08:56.030Z,3.10
2018-09-22T15:11:38.694Z,3.60
2018-09-22T15:14:21.352Z,3.42
2018-09-22T15:17:04.615Z,3.43
2018-09-22T15:19:47.926Z,3.65
2018-09-22T15:22:30.522Z,4.83
2018-09-22T15:25:13.194Z,3.98
2018-09-22T15:27:55.749Z,4.07
2018-09-22T15:30:38.467Z,3.87
2018-09-22T15:33:21.274Z,4.07
2018-09-22T15:36:03.959Z,4.37
2018-09-22T15:38:47.970Z,4.50
2018-09-22T15:41:30.761Z,4.13
2018-09-22T15:44:13.165Z,4.10
2018-09-22T15:46:56.020Z,4.20
2018-09-22T15:49:38.824Z,3.97
2018-09-22T15:52:21.408Z,3.83
2018-09-22T15:55:04.166Z,4.03
2018-09-22T15:57:46.796Z,3.70
2018-09-22T16:00:29.538Z,3.90
2018-09-22T16:03:12.272Z,3.63
2018-09-22T16:05:55.054Z,3.90
2018-09-22T16:08:37.630Z,4.10
2018-09-22T16:11:20.128Z,4.63
2018-09-22T16:14:02.959Z,4.47
2018-09-22T16:16:45.543Z,4.63
2018-09-22T16:19:28.382Z,4.70
2018-09-22T16:22:11.244Z,4.80
2018-09-22T16:24:53.899Z,4.00
2018-09-22T16:27:36.369Z,5.30
2018-09-22T16:30:19.033Z,5.23
2018-09-22T16:33:01.742Z,5.00
2018-09-22T16:35:44.321Z,4.43
2018-09-22T16:38:27.154Z,5.30
2018-09-22T16:41:09.916Z,5.80
2018-09-22T16:43:52.395Z,5.57
2018-09-22T16:46:34.964Z,5.60
2018-09-22T16:49:17.783Z,6.10
2018-09-22T16:52:00.585Z,5.20
2018-09-22T16:54:43.186Z,5.40
2018-09-22T16:57:25.861Z,6.03
2018-09-22T17:00:08.669Z,5.83
2018-09-22T17:02:51.453Z,6.10
2018-09-22T17:05:34.518Z,5.87
2018-09-22T17:08:17.472Z,6.30
2018-09-22T17:11:00.639Z,5.83
2018-09-22T17:13:43.262Z,5.67
2018-09-22T17:16:26.031Z,5.60
2018-09-22T17:19:08.926Z,6.63
2018-09-22T17:21:51.442Z,6.07
2018-09-22T17:24:34.155Z,6.20
2018-09-22T17:27:16.828Z,5.53
2018-09-22T17:29:59.483Z,6.30
2018-09-22T17:32:42.030Z,6.80
2018-09-22T17:35:24.794Z,6.20
2018-09-22T17:38:07.460Z,6.30
2018-09-22T17:40:50.126Z,6.43
2018-09-22T17:43:32.786Z,7.50
2018-09-22T17:46:15.501Z,7.03
2018-09-22T17:48:58.098Z,7.60
2018-09-22T17:51:40.758Z,7.60
2018-09-22T17:54:23.454Z,7.80
2018-09-22T17:57:06.247Z,8.10
2018-09-22T17:59:48.845Z,8.33
2018-09-22T18:02:32.564Z,9.40
2018-09-22T18:05:15.198Z,9.00
2018-09-22T18:07:57.946Z,8.50
2018-09-22T18:10:40.782Z,9.93
2018-09-22T18:13:23.546Z,10.13
2018-09-22T18:16:05.922Z,9.47
2018-09-22T18:18:48.774Z,9.07
2018-09-22T18:21:31.853Z,8.67
2018-09-22T18:24:15.059Z,7.87
2018-09-22T18:26:57.785Z,8.60
2018-09-22T18:29:40.348Z,7.80
2018-09-22T18:32:23.126Z,8.67
2018-09-22T18:35:05.915Z,8.47
2018-09-22T18:37:48.599Z,8.40
2018-09-22T18:40:31.074Z,7.97
2018-09-22T18:43:13.827Z,8.00
2018-09-22T18:45:56.439Z,8.80
2018-09-22T18:48:39.384Z,7.30
2018-09-22T18:51:21.925Z,9.30
2018-09-22T18:54:04.362Z,8.90
2018-09-22T18:56:46.947Z,8.57
2018-09-22T18:59:29.694Z,9.03
2018-09-22T19:02:12.391Z,8.23
2018-09-22T19:04:56.022Z,9.10
2018-09-22T19:07:39.739Z,8.73
2018-09-22T19:10:22.338Z,8.80
2018-09-22T19:13:06.190Z,8.90
2018-09-22T19:15:53.162Z,8.90
2018-09-22T19:18:39.794Z,8.50
2018-09-22T19:21:28.797Z,8.10
2018-09-22T19:24:16.289Z,7.80
2018-09-22T19:27:11.151Z,10.27
2018-09-22T19:29:59.167Z,7.90
2018-09-22T19:32:46.562Z,8.53
2018-09-22T19:36:39.790Z,7.93
2018-09-22T19:39:26.801Z,8.30
2018-09-22T19:42:13.898Z,8.23
2018-09-22T19:45:00.715Z,9.07
2018-09-22T19:47:52.961Z,8.90
2018-09-22T19:50:40.597Z,8.30
2018-09-22T19:53:23.936Z,8.23
2018-09-22T19:56:06.217Z,8.17
2018-09-22T19:58:48.920Z,9.03
2018-09-22T20:01:31.739Z,8.10
2018-09-22T20:04:14.348Z,7.90
2018-09-22T20:06:57.108Z,7.93
2018-09-22T20:09:39.935Z,8.33
2018-09-22T20:12:22.703Z,8.83
2018-09-22T20:15:05.031Z,8.90
2018-09-22T20:17:47.581Z,7.87
2018-09-22T20:20:30.641Z,9.20
2018-09-22T20:23:13.715Z,8.67
2018-09-22T20:25:57.866Z,9.40
2018-09-22T20:28:40.834Z,8.07
2018-09-22T20:31:23.892Z,8.63
2018-09-22T20:34:20.638Z,8.23
2018-09-22T20:37:04.030Z,9.50
2018-09-22T20:39:46.566Z,8.90
2018-09-22T20:42:29.354Z,7.93
2018-09-22T20:45:11.762Z,9.07
2018-09-22T20:47:54.642Z,8.23
2018-09-22T20:50:37.285Z,8.87
2018-09-22T20:53:19.697Z,8.63
2018-09-22T20:56:02.442Z,9.40
2018-09-22T20:58:45.358Z,8.40
2018-09-22T21:01:27.670Z,8.47
2018-09-22T21:04:11.065Z,8.60
2018-09-22T21:06:54.266Z,8.53
2018-09-22T21:09:37.268Z,8.10
2018-09-22T21:12:19.680Z,8.10
2018-09-22T21:15:02.397Z,9.27
2018-09-22T21:17:45.127Z,9.00
2018-09-22T21:20:27.877Z,9.10
2018-09-22T21:23:10.480Z,8.70
2018-09-22T21:25:53.342Z,8.00
2018-09-22T21:28:36.028Z,8.50
2018-09-22T21:31:18.921Z,8.43
2018-09-22T21:34:01.595Z,8.97
2018-09-22T21:36:44.150Z,8.70
2018-09-22T21:39:26.828Z,8.50
2018-09-22T21:42:09.620Z,8.00
2018-09-22T21:44:52.290Z,8.30
2018-09-22T21:47:34.809Z,8.90
2018-09-22T21:50:17.522Z,8.30
2018-09-22T21:53:00.026Z,8.77
2018-09-22T21:55:42.898Z,7.97
2018-09-22T21:58:25.410Z,8.07
2018-09-22T22:01:13.146Z,8.00
2018-09-22T22:03:55.686Z,7.83
2018-09-22T22:06:38.212Z,7.13
2018-09-22T22:09:21.287Z,7.10
2018-09-22T22:12:03.910Z,7.80
2018-09-22T22:14:46.442Z,8.10
2018-09-22T22:17:29.111Z,7.87
2018-09-22T22:20:11.898Z,7.37
2018-09-22T22:22:54.494Z,7.07
2018-09-22T22:25:37.403Z,8.20
2018-09-22T22:28:19.880Z,8.03
2018-09-22T22:31:02.550Z,7.67
2018-09-22T22:33:45.263Z,7.73
2018-09-22T22:36:28.772Z,8.20
2018-09-22T22:39:11.450Z,8.77
2018-09-22T22:41:54.390Z,9.00
2018-09-22T22:44:36.898Z,9.07
2018-09-22T22:47:19.524Z,7.83
2018-09-22T22:50:02.267Z,8.67
2018-09-22T22:52:45.930Z,9.03
2018-09-22T22:55:28.662Z,8.70
2018-09-22T22:58:11.440Z,8.30
2018-09-22T23:00:53.963Z,7.90
2018-09-22T23:03:36.747Z,9.47
2018-09-22T23:06:19.425Z,8.20
2018-09-22T23:09:02.126Z,8.97
2018-09-22T23:11:45.383Z,8.20
2018-09-22T23:14:28.442Z,7.87
2018-09-22T23:17:11.038Z,8.50
2018-09-22T23:19:53.575Z,8.50
2018-09-22T23:22:36.438Z,8.30
2018-09-22T23:25:18.978Z,8.97
2018-09-22T23:28:01.828Z,8.50
2018-09-22T23:30:44.373Z,9.27
2018-09-22T23:33:27.027Z,8.20
2018-09-22T23:36:09.557Z,9.07
2018-09-22T23:38:52.437Z,10.10
2018-09-22T23:41:34.874Z,8.97
2018-09-22T23:44:17.664Z,9.10
2018-09-22T23:47:00.354Z,9.50
2018-09-22T23:49:42.727Z,10.30
2018-09-22T23:52:25.697Z,9.80
2018-09-22T23:55:08.234Z,10.30
2018-09-22T23:57:51.027Z,10.43
